Time;durP1;ratioP1;P1;durP2;ratioP2;P2;SDS_P1;SDS_P2;PMS_P1;PMS_P2;Temp;Humidity;BMP_temperature;BMP_pressure;BME280_temperature;BME280_humidity;BME280_pressure;Samples;Min_cycle;Max_cycle;Signal;HPM_P1;HPM_P2
2022/01/08 00:00:17;;;;;;;9.77;2.70;;;;;;;;;;5089398;28;20364;-78
2022/01/08 00:02:43;;;;;;;12.13;3.60;;;;;;;;;;5086230;28;20533;-74
2022/01/08 00:05:10;;;;;;;5.72;2.20;;;;;;;;;;5082528;28;20046;-78
2022/01/08 00:07:36;;;;;;;10.88;2.90;;;;;;;;;;5081202;28;20039;-74
2022/01/08 00:10:03;;;;;;;12.13;2.90;;;;;;;;;;5084310;28;20074;-74
2022/01/08 00:12:29;;;;;;;11.70;2.50;;;;;;;;;;5080362;28;20057;-75
2022/01/08 00:14:55;;;;;;;9.55;2.15;;;;;;;;;;5085239;28;20043;-75
2022/01/08 00:17:23;;;;;;;8.85;2.53;;;;;;;;;;5065830;28;20431;-76
2022/01/08 00:19:52;;;;;;;9.80;2.63;;;;;;;;;;5081236;28;20063;-74
2022/01/08 00:22:19;;;;;;;9.75;2.28;;;;;;;;;;5065746;28;20047;-75
2022/01/08 00:24:45;;;;;;;7.82;2.08;;;;;;;;;;5115058;27;20113;-74
2022/01/08 00:27:11;;;;;;;8.02;2.72;;;;;;;;;;5068582;28;20047;-76
2022/01/08 00:29:37;;;;;;;12.07;2.47;;;;;;;;;;5067382;28;20086;-74
2022/01/08 00:32:03;;;;;;;8.13;3.03;;;;;;;;;;5085554;28;20055;-74
2022/01/08 00:34:29;;;;;;;9.95;3.03;;;;;;;;;;5080519;28;20049;-74
2022/01/08 00:36:56;;;;;;;7.15;2.45;;;;;;;;;;5108374;27;20191;-74
2022/01/08 00:39:22;;;;;;;9.75;2.80;;;;;;;;;;5063006;28;20045;-77
2022/01/08 00:41:48;;;;;;;9.48;2.92;;;;;;;;;;5063512;28;20048;-76
2022/01/08 00:44:16;;;;;;;12.45;3.30;;;;;;;;;;5083581;28;20093;-75
2022/01/08 00:46:42;;;;;;;11.60;3.38;;;;;;;;;;5071768;28;20083;-75
2022/01/08 00:49:08;;;;;;;9.52;3.10;;;;;;;;;;5083180;28;20127;-75
2022/01/08 00:51:34;;;;;;;12.80;3.55;;;;;;;;;;5067633;28;20547;-75
2022/01/08 00:54:00;;;;;;;8.63;3.78;;;;;;;;;;5107390;27;20399;-77
2022/01/08 00:56:26;;;;;;;9.18;3.42;;;;;;;;;;5114764;27;20044;-76
2022/01/08 00:58:53;;;;;;;10.88;3.92;;;;;;;;;;5087662;28;20048;-75
2022/01/08 01:01:19;;;;;;;11.82;4.03;;;;;;;;;;5064341;28;20496;-75
2022/01/08 01:03:45;;;;;;;8.52;4.00;;;;;;;;;;5065437;28;20127;-75
2022/01/08 01:06:11;;;;;;;12.93;5.10;;;;;;;;;;5088800;28;20143;-75
2022/01/08 01:08:37;;;;;;;13.65;4.97;;;;;;;;;;5072106;28;20395;-75
2022/01/08 01:11:03;;;;;;;18.45;5.40;;;;;;;;;;5072897;28;20509;-75
2022/01/08 01:13:29;;;;;;;15.55;5.65;;;;;;;;;;5066124;28;20402;-75
2022/01/08 01:15:55;;;;;;;14.15;5.45;;;;;;;;;;5116863;27;20040;-75
2022/01/08 01:18:21;;;;;;;20.23;6.07;;;;;;;;;;5078735;28;20037;-75
2022/01/08 01:20:47;;;;;;;16.35;6.95;;;;;;;;;;5077302;28;20043;-75
2022/01/08 01:23:19;;;;;;;15.23;6.10;;;;;;;;;;5069129;28;20056;-75
2022/01/08 01:25:56;;;;;;;14.90;6.78;;;;;;;;;;5061855;28;20317;-75
2022/01/08 01:28:36;;;;;;;14.10;6.68;;;;;;;;;;5084115;28;20048;-75
2022/01/08 01:42:07;;;;;;;14.30;5.97;;;;;;;;;;5078429;28;20066;-74
2022/01/08 01:47:20;;;;;;;10.23;4.68;;;;;;;;;;5075403;28;20056;-75
2022/01/08 01:49:47;;;;;;;18.98;5.03;;;;;;;;;;5104414;28;20044;-75
2022/01/08 01:52:14;;;;;;;17.38;4.82;;;;;;;;;;5075703;28;20072;-75
2022/01/08 01:54:40;;;;;;;13.18;4.60;;;;;;;;;;5076552;28;20070;-75
2022/01/08 01:57:07;;;;;;;13.02;4.93;;;;;;;;;;5091527;28;20043;-75
2022/01/08 01:59:34;;;;;;;10.50;4.03;;;;;;;;;;5088177;28;20052;-75
2022/01/08 02:02:01;;;;;;;8.90;3.67;;;;;;;;;;5089588;28;20051;-75
2022/01/08 02:04:27;;;;;;;12.90;4.00;;;;;;;;;;5066592;28;20076;-75
2022/01/08 02:06:53;;;;;;;9.85;3.42;;;;;;;;;;5065155;28;20443;-75
2022/01/08 02:09:19;;;;;;;10.45;3.30;;;;;;;;;;5078796;28;20138;-75
2022/01/08 02:11:58;;;;;;;18.45;3.42;;;;;;;;;;5088948;28;20048;-75
2022/01/08 02:14:24;;;;;;;12.10;3.15;;;;;;;;;;5088292;28;20048;-75
2022/01/08 02:16:50;;;;;;;11.57;2.78;;;;;;;;;;5054265;28;20516;-75
2022/01/08 02:19:16;;;;;;;10.25;2.70;;;;;;;;;;5068118;28;20044;-75
2022/01/08 02:22:01;;;;;;;11.18;2.45;;;;;;;;;;5069968;28;20478;-75
2022/01/08 02:24:28;;;;;;;8.55;2.30;;;;;;;;;;5091745;28;20086;-75
2022/01/08 02:26:54;;;;;;;8.23;2.67;;;;;;;;;;5089015;28;20055;-75
2022/01/08 02:29:21;;;;;;;7.13;1.92;;;;;;;;;;5081544;28;20048;-74
2022/01/08 02:31:58;;;;;;;7.30;1.83;;;;;;;;;;5088727;28;20044;-73
2022/01/08 02:34:26;;;;;;;7.40;2.30;;;;;;;;;;5093098;28;20510;-74
2022/01/08 02:36:52;;;;;;;9.73;1.83;;;;;;;;;;5063833;28;20303;-74
2022/01/08 02:39:18;;;;;;;7.35;2.17;;;;;;;;;;5060218;28;20498;-74
2022/01/08 02:41:44;;;;;;;8.90;2.80;;;;;;;;;;5092322;28;20044;-74
2022/01/08 02:44:10;;;;;;;10.18;1.90;;;;;;;;;;5072167;28;20105;-75
2022/01/08 02:46:40;;;;;;;3.95;2.20;;;;;;;;;;5102250;28;20059;-75
2022/01/08 02:49:07;;;;;;;6.55;2.13;;;;;;;;;;5082115;28;20036;-75
2022/01/08 02:51:35;;;;;;;7.82;2.08;;;;;;;;;;5058375;28;20047;-76
2022/01/08 02:54:02;;;;;;;7.32;2.13;;;;;;;;;;5074440;28;20487;-75
2022/01/08 02:56:28;;;;;;;7.45;1.83;;;;;;;;;;5087074;28;20047;-75
2022/01/08 02:58:54;;;;;;;6.55;2.13;;;;;;;;;;5074247;28;20083;-75
2022/01/08 03:01:20;;;;;;;9.10;2.45;;;;;;;;;;5072310;28;20086;-75
2022/01/08 03:03:46;;;;;;;9.55;2.10;;;;;;;;;;5096552;28;20051;-75
2022/01/08 03:06:12;;;;;;;6.72;1.92;;;;;;;;;;5077388;28;20085;-75
2022/01/08 03:08:38;;;;;;;11.93;2.33;;;;;;;;;;5060335;28;20448;-76
2022/01/08 03:11:04;;;;;;;7.53;2.40;;;;;;;;;;5058813;28;20451;-75
2022/01/08 03:13:31;;;;;;;8.32;1.70;;;;;;;;;;5082940;28;20047;-75
2022/01/08 03:15:58;;;;;;;5.50;1.92;;;;;;;;;;5089251;28;20128;-76
2022/01/08 03:18:24;;;;;;;8.40;2.22;;;;;;;;;;5060699;28;20089;-75
2022/01/08 03:21:01;;;;;;;4.63;2.38;;;;;;;;;;5082116;28;20079;-75
2022/01/08 03:23:39;;;;;;;6.35;1.65;;;;;;;;;;5099099;28;20048;-75
2022/01/08 03:26:05;;;;;;;6.75;1.98;;;;;;;;;;5080903;28;20106;-74
2022/01/08 03:28:32;;;;;;;6.80;1.77;;;;;;;;;;5073445;28;20040;-74
2022/01/08 03:30:58;;;;;;;6.22;1.73;;;;;;;;;;5055125;28;20044;-75
2022/01/08 03:33:24;;;;;;;5.15;1.63;;;;;;;;;;5081128;28;20041;-74
2022/01/08 03:35:50;;;;;;;8.20;2.00;;;;;;;;;;5089301;28;20055;-75
2022/01/08 03:38:16;;;;;;;7.53;1.55;;;;;;;;;;5068541;28;20127;-75
2022/01/08 03:40:42;;;;;;;6.45;1.70;;;;;;;;;;5118687;27;20048;-76
2022/01/08 03:43:08;;;;;;;6.95;1.65;;;;;;;;;;5084431;28;20506;-74
2022/01/08 03:45:34;;;;;;;4.70;1.63;;;;;;;;;;5089116;28;20039;-74
2022/01/08 03:50:45;;;;;;;7.53;1.40;;;;;;;;;;5107082;27;20048;-75
2022/01/08 03:53:11;;;;;;;8.48;1.77;;;;;;;;;;5107644;27;20044;-74
2022/01/08 03:55:37;;;;;;;4.10;1.73;;;;;;;;;;5038952;28;20036;-75
2022/01/08 03:58:03;;;;;;;6.88;1.90;;;;;;;;;;5084468;28;20052;-74
2022/01/08 04:00:29;;;;;;;6.88;2.00;;;;;;;;;;5055966;28;20131;-74
2022/01/08 04:02:55;;;;;;;11.23;1.98;;;;;;;;;;5070449;28;20083;-74
2022/01/08 04:05:21;;;;;;;10.02;2.35;;;;;;;;;;5073402;28;20517;-75
2022/01/08 04:07:47;;;;;;;7.85;1.98;;;;;;;;;;5081219;28;20055;-74
2022/01/08 04:10:13;;;;;;;15.00;3.47;;;;;;;;;;5055187;28;20044;-73
2022/01/08 04:12:47;;;;;;;13.70;2.72;;;;;;;;;;5115756;27;20035;-74
2022/01/08 04:15:48;;;;;;;9.13;3.08;;;;;;;;;;5087251;28;20040;-74
2022/01/08 04:18:06;;;;;;;9.73;3.00;;;;;;;;;;5097060;28;20051;-74
2022/01/08 04:20:35;;;;;;;17.98;3.05;;;;;;;;;;5088431;28;20133;-74
2022/01/08 04:23:02;;;;;;;7.47;2.63;;;;;;;;;;5075966;28;20127;-74
2022/01/08 04:25:28;;;;;;;8.27;2.70;;;;;;;;;;5085284;28;20091;-74
2022/01/08 04:27:54;;;;;;;11.93;3.88;;;;;;;;;;5078573;28;20528;-74
2022/01/08 04:30:20;;;;;;;10.60;2.85;;;;;;;;;;5080914;28;20133;-73
2022/01/08 04:32:46;;;;;;;6.90;2.50;;;;;;;;;;5071425;28;20044;-76
2022/01/08 04:35:12;;;;;;;17.73;3.05;;;;;;;;;;5089624;28;20041;-74
2022/01/08 04:37:38;;;;;;;11.80;3.17;;;;;;;;;;5068018;28;20048;-75
2022/01/08 04:40:05;;;;;;;7.15;2.95;;;;;;;;;;5053935;28;20672;-75
2022/01/08 04:42:31;;;;;;;10.90;3.30;;;;;;;;;;5064680;28;20050;-75
2022/01/08 04:44:57;;;;;;;9.90;2.88;;;;;;;;;;5044546;28;20048;-76
2022/01/08 04:47:23;;;;;;;15.55;3.92;;;;;;;;;;5074027;28;20044;-75
2022/01/08 04:49:49;;;;;;;5.85;2.97;;;;;;;;;;5053945;28;20055;-76
2022/01/08 04:52:15;;;;;;;12.10;2.97;;;;;;;;;;5090015;28;20048;-75
2022/01/08 04:54:41;;;;;;;11.18;3.08;;;;;;;;;;5088764;28;21083;-75
2022/01/08 04:57:07;;;;;;;12.15;3.25;;;;;;;;;;5075449;28;20048;-75
2022/01/08 04:59:33;;;;;;;6.85;2.80;;;;;;;;;;5088661;28;20146;-75
2022/01/08 05:01:59;;;;;;;16.85;3.10;;;;;;;;;;5090821;28;20052;-75
2022/01/08 05:04:27;;;;;;;6.63;3.00;;;;;;;;;;5062873;28;20421;-75
2022/01/08 05:06:53;;;;;;;12.38;3.20;;;;;;;;;;5085459;28;20059;-75
2022/01/08 05:09:19;;;;;;;9.00;2.65;;;;;;;;;;5085187;28;20205;-76
2022/01/08 05:11:46;;;;;;;9.85;2.92;;;;;;;;;;5074584;28;20048;-75
2022/01/08 05:14:13;;;;;;;12.32;2.80;;;;;;;;;;5098112;28;20056;-75
2022/01/08 05:16:41;;;;;;;9.75;2.67;;;;;;;;;;5063529;28;20046;-76
2022/01/08 05:19:07;;;;;;;12.25;3.28;;;;;;;;;;5069568;28;20055;-74
2022/01/08 05:21:37;;;;;;;7.53;2.80;;;;;;;;;;5080820;28;20380;-74
2022/01/08 05:24:03;;;;;;;10.68;2.67;;;;;;;;;;5098665;28;20491;-74
2022/01/08 05:26:29;;;;;;;7.57;2.72;;;;;;;;;;5065493;28;20502;-75
2022/01/08 05:28:55;;;;;;;9.45;2.35;;;;;;;;;;5073927;28;20075;-74
2022/01/08 05:31:23;;;;;;;18.48;3.65;;;;;;;;;;5071066;28;20072;-75
2022/01/08 05:33:50;;;;;;;8.07;2.28;;;;;;;;;;5059228;28;20076;-75
2022/01/08 05:36:16;;;;;;;10.75;2.30;;;;;;;;;;5075450;28;20048;-75
2022/01/08 05:38:42;;;;;;;12.18;2.83;;;;;;;;;;5061370;28;20127;-74
2022/01/08 05:41:08;;;;;;;7.60;3.17;;;;;;;;;;5069146;28;20047;-75
2022/01/08 05:43:34;;;;;;;10.30;2.50;;;;;;;;;;5060778;28;20067;-75
2022/01/08 05:46:00;;;;;;;9.50;3.42;;;;;;;;;;5100433;28;20091;-75
2022/01/08 05:48:27;;;;;;;7.32;2.72;;;;;;;;;;5087430;28;20542;-75
2022/01/08 05:50:53;;;;;;;11.00;2.70;;;;;;;;;;5083838;28;20051;-77
2022/01/08 05:53:20;;;;;;;9.18;2.75;;;;;;;;;;5083977;28;20518;-75
2022/01/08 05:55:46;;;;;;;8.82;2.78;;;;;;;;;;5083180;28;20040;-75
2022/01/08 05:58:12;;;;;;;9.52;2.90;;;;;;;;;;5070602;28;20059;-75
2022/01/08 06:00:38;;;;;;;7.13;2.70;;;;;;;;;;5070117;28;20059;-75
2022/01/08 06:03:04;;;;;;;10.25;2.97;;;;;;;;;;5068339;28;20044;-76
2022/01/08 06:05:30;;;;;;;15.20;3.83;;;;;;;;;;5075656;28;20044;-76
2022/01/08 06:07:57;;;;;;;12.77;4.65;;;;;;;;;;5086465;28;20047;-76
2022/01/08 06:10:23;;;;;;;14.00;4.10;;;;;;;;;;5092217;28;20093;-75
2022/01/08 06:12:52;;;;;;;19.00;5.35;;;;;;;;;;5075568;28;20130;-75
2022/01/08 06:15:19;;;;;;;15.95;4.57;;;;;;;;;;5055060;28;20098;-75
2022/01/08 06:17:45;;;;;;;16.25;5.35;;;;;;;;;;5071509;28;20048;-75
2022/01/08 06:20:11;;;;;;;17.63;5.25;;;;;;;;;;5057593;28;20044;-75
2022/01/08 06:22:37;;;;;;;16.95;5.78;;;;;;;;;;5086909;28;20098;-74
2022/01/08 06:25:04;;;;;;;17.73;6.43;;;;;;;;;;5084002;28;20788;-75
2022/01/08 06:27:30;;;;;;;13.27;5.70;;;;;;;;;;5082242;28;20079;-75
2022/01/08 06:29:56;;;;;;;20.88;6.22;;;;;;;;;;5107513;27;20079;-75
2022/01/08 06:32:22;;;;;;;18.52;7.20;;;;;;;;;;5091026;28;20111;-75
2022/01/08 06:34:48;;;;;;;15.38;5.60;;;;;;;;;;5085821;28;20040;-75
2022/01/08 06:37:14;;;;;;;21.60;5.88;;;;;;;;;;5073884;28;20055;-75
2022/01/08 06:39:40;;;;;;;13.80;6.00;;;;;;;;;;5084863;28;20114;-76
2022/01/08 06:42:06;;;;;;;25.45;7.15;;;;;;;;;;5060533;28;20044;-75
2022/01/08 06:44:32;;;;;;;15.23;6.40;;;;;;;;;;5068599;28;20036;-75
2022/01/08 06:46:58;;;;;;;17.35;7.43;;;;;;;;;;5056327;28;20131;-77
2022/01/08 06:49:24;;;;;;;21.73;7.30;;;;;;;;;;5083830;28;20040;-76
2022/01/08 06:51:50;;;;;;;20.58;8.15;;;;;;;;;;5081453;28;20044;-76
2022/01/08 06:54:16;;;;;;;22.25;8.45;;;;;;;;;;5078799;28;20051;-77
2022/01/08 06:56:43;;;;;;;19.52;8.70;;;;;;;;;;5116148;27;20044;-76
2022/01/08 06:59:09;;;;;;;24.23;9.27;;;;;;;;;;5116814;27;20438;-76
2022/01/08 07:01:35;;;;;;;26.15;9.60;;;;;;;;;;5080907;28;20039;-75
2022/01/08 07:04:02;;;;;;;24.85;10.38;;;;;;;;;;5073596;28;20053;-77
2022/01/08 07:06:28;;;;;;;23.88;9.98;;;;;;;;;;5086796;28;20131;-76
2022/01/08 07:08:54;;;;;;;24.27;9.82;;;;;;;;;;5118850;27;20048;-76
2022/01/08 07:11:20;;;;;;;24.83;10.38;;;;;;;;;;5104244;28;20153;-76
2022/01/08 07:13:46;;;;;;;25.23;10.63;;;;;;;;;;5061775;28;20039;-76
2022/01/08 07:16:12;;;;;;;29.02;10.20;;;;;;;;;;5079963;28;20037;-75
2022/01/08 07:18:38;;;;;;;25.63;11.18;;;;;;;;;;5057201;28;20510;-75
2022/01/08 07:21:05;;;;;;;25.42;9.63;;;;;;;;;;5079150;28;20076;-76
2022/01/08 07:23:31;;;;;;;27.17;11.18;;;;;;;;;;5086683;28;20048;-75
2022/01/08 07:25:57;;;;;;;28.40;10.18;;;;;;;;;;5082373;28;20056;-75
2022/01/08 07:28:23;;;;;;;30.27;11.32;;;;;;;;;;5075807;28;20049;-75
2022/01/08 07:30:49;;;;;;;27.27;10.70;;;;;;;;;;5082371;28;20047;-76
2022/01/08 07:33:15;;;;;;;22.83;10.27;;;;;;;;;;5087720;28;20040;-75
2022/01/08 07:35:41;;;;;;;29.05;10.25;;;;;;;;;;5065838;28;20824;-76
2022/01/08 07:38:07;;;;;;;26.27;10.13;;;;;;;;;;5060020;28;20052;-76
2022/01/08 07:40:34;;;;;;;26.40;10.50;;;;;;;;;;5067604;28;20051;-75
2022/01/08 07:43:00;;;;;;;26.02;9.77;;;;;;;;;;5053377;28;20048;-75
2022/01/08 07:45:26;;;;;;;22.98;9.02;;;;;;;;;;5060903;28;20246;-75
2022/01/08 07:47:52;;;;;;;23.90;8.38;;;;;;;;;;5074318;28;20063;-75
2022/01/08 07:50:18;;;;;;;24.17;9.25;;;;;;;;;;5083274;28;20044;-76
2022/01/08 07:52:44;;;;;;;22.73;8.57;;;;;;;;;;5063743;28;20051;-76
2022/01/08 07:55:11;;;;;;;20.02;8.93;;;;;;;;;;5075920;28;20150;-76
2022/01/08 07:57:37;;;;;;;24.88;8.73;;;;;;;;;;5095471;28;20075;-75
2022/01/08 08:00:04;;;;;;;29.05;10.23;;;;;;;;;;5078551;28;20499;-76
2022/01/08 08:02:30;;;;;;;18.92;8.18;;;;;;;;;;5072909;28;20041;-75
2022/01/08 08:04:56;;;;;;;32.45;8.55;;;;;;;;;;5094538;28;20044;-75
2022/01/08 08:07:26;;;;;;;19.90;8.95;;;;;;;;;;5096696;28;20047;-74
2022/01/08 08:09:53;;;;;;;21.17;8.15;;;;;;;;;;5074296;28;20055;-74
2022/01/08 08:12:19;;;;;;;20.80;8.27;;;;;;;;;;5090434;28;20120;-74
2022/01/08 08:14:45;;;;;;;30.95;9.60;;;;;;;;;;5074536;28;20510;-75
2022/01/08 08:17:11;;;;;;;20.70;8.50;;;;;;;;;;5091525;28;20116;-75
2022/01/08 08:19:37;;;;;;;19.55;8.18;;;;;;;;;;5081092;28;20036;-74
2022/01/08 08:22:03;;;;;;;22.02;8.15;;;;;;;;;;5055763;28;20082;-74
2022/01/08 08:24:29;;;;;;;28.88;9.45;;;;;;;;;;5053870;28;20044;-74
2022/01/08 08:26:55;;;;;;;18.98;8.82;;;;;;;;;;5098588;28;20051;-73
2022/01/08 08:29:21;;;;;;;22.88;8.70;;;;;;;;;;5066623;28;20071;-74
2022/01/08 08:31:47;;;;;;;21.48;8.32;;;;;;;;;;5073695;28;20052;-74
2022/01/08 08:34:13;;;;;;;18.70;7.93;;;;;;;;;;5075635;28;20079;-74
2022/01/08 08:36:39;;;;;;;19.08;6.72;;;;;;;;;;5067838;28;20055;-74
2022/01/08 08:39:05;;;;;;;17.85;7.45;;;;;;;;;;5071434;28;20118;-74
2022/01/08 08:41:31;;;;;;;25.38;8.35;;;;;;;;;;5054076;28;20612;-75
2022/01/08 08:43:57;;;;;;;18.25;7.22;;;;;;;;;;5071703;28;20032;-74
2022/01/08 08:46:24;;;;;;;17.25;7.60;;;;;;;;;;5088929;28;20037;-75
2022/01/08 08:48:50;;;;;;;14.20;6.50;;;;;;;;;;5088106;28;20102;-75
2022/01/08 08:51:16;;;;;;;25.10;7.75;;;;;;;;;;5069596;28;20037;-75
2022/01/08 08:53:42;;;;;;;23.20;8.00;;;;;;;;;;5075756;28;20052;-74
2022/01/08 08:56:08;;;;;;;21.75;8.02;;;;;;;;;;5070788;28;20040;-75
2022/01/08 08:58:34;;;;;;;21.48;8.43;;;;;;;;;;5080265;28;20044;-75
2022/01/08 09:01:01;;;;;;;17.60;7.10;;;;;;;;;;5075558;28;20051;-75
2022/01/08 09:03:27;;;;;;;23.42;7.22;;;;;;;;;;5060563;28;20157;-75
2022/01/08 09:05:53;;;;;;;20.65;7.15;;;;;;;;;;5071397;28;20048;-75
2022/01/08 09:08:19;;;;;;;18.52;7.28;;;;;;;;;;5059484;28;20097;-75
2022/01/08 09:10:45;;;;;;;16.90;6.68;;;;;;;;;;5076854;28;20521;-75
2022/01/08 09:13:11;;;;;;;20.83;6.68;;;;;;;;;;5078948;28;20101;-75
2022/01/08 09:15:41;;;;;;;15.75;6.10;;;;;;;;;;5068366;28;20047;-76
2022/01/08 09:18:08;;;;;;;13.18;6.05;;;;;;;;;;5069585;28;20542;-74
2022/01/08 09:20:34;;;;;;;18.50;7.40;;;;;;;;;;5054339;28;20721;-74
2022/01/08 09:23:00;;;;;;;10.93;5.20;;;;;;;;;;5071748;28;20044;-74
2022/01/08 09:25:26;;;;;;;18.95;5.25;;;;;;;;;;5059907;28;20040;-75
2022/01/08 09:27:52;;;;;;;19.52;5.93;;;;;;;;;;5080695;28;20060;-75
2022/01/08 09:30:18;;;;;;;13.15;5.85;;;;;;;;;;5067142;28;20403;-74
2022/01/08 09:32:45;;;;;;;14.88;5.35;;;;;;;;;;5066523;28;20083;-75
2022/01/08 09:35:11;;;;;;;16.67;5.88;;;;;;;;;;5083161;28;20040;-75
2022/01/08 09:37:39;;;;;;;16.95;6.05;;;;;;;;;;5106255;28;20228;-74
2022/01/08 09:40:07;;;;;;;14.00;5.50;;;;;;;;;;5070044;28;20045;-74
2022/01/08 09:42:33;;;;;;;21.17;5.93;;;;;;;;;;5069717;28;20047;-74
2022/01/08 09:44:59;;;;;;;22.73;5.35;;;;;;;;;;5076305;28;20433;-74
2022/01/08 09:47:25;;;;;;;16.50;5.20;;;;;;;;;;5058195;28;20834;-74
2022/01/08 09:49:51;;;;;;;15.85;4.93;;;;;;;;;;5081413;28;20145;-75
2022/01/08 09:52:17;;;;;;;13.50;4.85;;;;;;;;;;5087382;28;20048;-77
2022/01/08 09:54:43;;;;;;;14.48;5.28;;;;;;;;;;5077667;28;20422;-75
2022/01/08 09:57:09;;;;;;;17.27;4.40;;;;;;;;;;5075485;28;20074;-74
2022/01/08 09:59:35;;;;;;;19.33;5.13;;;;;;;;;;5059205;28;20049;-74
2022/01/08 10:02:02;;;;;;;18.05;5.55;;;;;;;;;;5077971;28;20048;-73
2022/01/08 10:04:35;;;;;;;13.07;4.47;;;;;;;;;;5080561;28;20040;-75
2022/01/08 10:07:15;;;;;;;12.30;5.55;;;;;;;;;;5073221;28;20052;-74
2022/01/08 10:09:59;;;;;;;22.25;4.97;;;;;;;;;;5110381;28;20508;-74
2022/01/08 10:12:36;;;;;;;17.85;4.20;;;;;;;;;;5078566;28;20044;-74
2022/01/08 10:17:48;;;;;;;16.75;3.92;;;;;;;;;;5073386;28;20138;-74
2022/01/08 10:20:27;;;;;;;10.18;3.78;;;;;;;;;;5081566;28;20067;-74
2022/01/08 10:23:19;;;;;;;14.63;4.10;;;;;;;;;;5081474;28;20082;-74
2022/01/08 10:26:13;;;;;;;15.23;4.60;;;;;;;;;;5070907;28;20048;-73
2022/01/08 10:28:44;;;;;;;14.15;4.53;;;;;;;;;;5079488;28;20127;-73
2022/01/08 10:31:16;;;;;;;13.88;3.90;;;;;;;;;;5062144;28;20050;-75
2022/01/08 10:33:45;;;;;;;12.25;3.85;;;;;;;;;;5077536;28;20423;-74
2022/01/08 10:36:11;;;;;;;11.10;4.18;;;;;;;;;;5086245;28;20032;-74
2022/01/08 10:38:38;;;;;;;14.48;4.90;;;;;;;;;;5085951;28;20048;-75
2022/01/08 10:41:07;;;;;;;15.07;5.13;;;;;;;;;;5084228;28;20093;-74
2022/01/08 10:43:33;;;;;;;23.42;8.00;;;;;;;;;;5067977;28;20080;-75
2022/01/08 10:46:13;;;;;;;11.63;4.60;;;;;;;;;;5092462;28;20044;-75
2022/01/08 10:48:42;;;;;;;12.57;4.55;;;;;;;;;;5062016;28;20102;-75
2022/01/08 10:51:09;;;;;;;14.27;4.68;;;;;;;;;;5073518;28;20055;-76
2022/01/08 10:53:54;;;;;;;13.07;4.70;;;;;;;;;;5070748;28;20044;-76
2022/01/08 10:56:21;;;;;;;10.73;4.93;;;;;;;;;;5086015;28;20036;-74
2022/01/08 10:58:52;;;;;;;12.18;4.90;;;;;;;;;;5085779;28;20052;-74
2022/01/08 11:01:37;;;;;;;19.10;6.07;;;;;;;;;;5088910;28;20123;-74
2022/01/08 11:04:03;;;;;;;16.02;6.22;;;;;;;;;;5088109;28;20036;-73
2022/01/08 11:06:30;;;;;;;25.88;7.22;;;;;;;;;;5086163;28;20051;-74
2022/01/08 11:09:00;;;;;;;21.02;6.63;;;;;;;;;;5081388;28;20073;-73
2022/01/08 11:11:30;;;;;;;21.45;7.68;;;;;;;;;;5087493;28;20048;-73
2022/01/08 11:14:04;;;;;;;25.05;7.45;;;;;;;;;;5079999;28;20160;-74
2022/01/08 11:16:31;;;;;;;15.38;7.15;;;;;;;;;;5065917;28;20163;-72
2022/01/08 11:18:59;;;;;;;20.80;7.65;;;;;;;;;;5084932;28;20044;-73
2022/01/08 11:21:28;;;;;;;19.60;7.65;;;;;;;;;;5081142;28;20448;-75
2022/01/08 11:23:54;;;;;;;17.88;7.20;;;;;;;;;;5090213;28;20487;-73
2022/01/08 11:26:20;;;;;;;17.15;7.40;;;;;;;;;;5085965;28;20559;-72
2022/01/08 11:28:47;;;;;;;18.42;7.40;;;;;;;;;;5086259;28;20044;-71
2022/01/08 11:31:15;;;;;;;14.95;7.30;;;;;;;;;;5088601;28;20040;-72
2022/01/08 11:33:45;;;;;;;25.80;8.13;;;;;;;;;;5084490;28;20040;-73
2022/01/08 11:36:13;;;;;;;19.65;7.07;;;;;;;;;;5073797;28;20071;-74
2022/01/08 11:38:43;;;;;;;12.00;6.68;;;;;;;;;;5089072;28;20048;-73
2022/01/08 11:41:09;;;;;;;14.40;6.85;;;;;;;;;;5087726;28;20052;-75
2022/01/08 11:43:36;;;;;;;18.58;8.10;;;;;;;;;;5083437;28;20391;-77
2022/01/08 11:46:09;;;;;;;17.27;6.63;;;;;;;;;;5087094;28;20104;-74
2022/01/08 11:48:35;;;;;;;12.95;7.03;;;;;;;;;;5084443;28;20046;-75
2022/01/08 11:51:02;;;;;;;12.63;7.63;;;;;;;;;;5088167;28;20387;-74
2022/01/08 11:53:29;;;;;;;20.88;8.55;;;;;;;;;;5089679;28;20506;-78
2022/01/08 11:55:57;;;;;;;15.63;7.82;;;;;;;;;;5073134;28;20040;-75
2022/01/08 11:58:26;;;;;;;14.50;7.43;;;;;;;;;;5069638;28;20067;-73
2022/01/08 12:00:56;;;;;;;16.67;6.93;;;;;;;;;;5084425;28;20055;-76
2022/01/08 12:03:23;;;;;;;16.98;7.40;;;;;;;;;;5082405;28;20425;-74
2022/01/08 12:05:50;;;;;;;22.50;7.63;;;;;;;;;;5066770;28;20044;-73
2022/01/08 12:08:18;;;;;;;17.67;8.02;;;;;;;;;;5084910;28;20559;-74
2022/01/08 12:10:58;;;;;;;17.00;7.88;;;;;;;;;;5088256;28;20105;-75
2022/01/08 12:13:43;;;;;;;23.35;8.32;;;;;;;;;;5072505;28;20475;-77
2022/01/08 12:16:29;;;;;;;17.27;8.23;;;;;;;;;;5087600;28;20036;-74
2022/01/08 12:18:55;;;;;;;21.88;8.43;;;;;;;;;;5083457;28;20039;-77
2022/01/08 12:21:35;;;;;;;16.92;8.57;;;;;;;;;;5078821;28;20474;-77
2022/01/08 12:24:20;;;;;;;18.13;9.45;;;;;;;;;;5083485;28;20089;-76
2022/01/08 12:26:47;;;;;;;17.45;9.30;;;;;;;;;;5070147;28;20036;-76
2022/01/08 12:29:31;;;;;;;22.73;10.32;;;;;;;;;;5084056;28;20383;-76
2022/01/08 12:32:16;;;;;;;16.83;10.20;;;;;;;;;;5077756;28;20043;-75
2022/01/08 12:34:48;;;;;;;19.15;10.90;;;;;;;;;;5077938;28;20105;-76
2022/01/08 12:37:15;;;;;;;19.63;11.50;;;;;;;;;;5095848;27;20037;-74
2022/01/08 12:39:54;;;;;;;22.02;11.50;;;;;;;;;;5083813;28;20111;-74
2022/01/08 12:42:20;;;;;;;22.05;11.50;;;;;;;;;;5083545;28;20054;-73
2022/01/08 12:44:59;;;;;;;22.95;11.82;;;;;;;;;;5082011;28;20379;-75
2022/01/08 12:47:45;;;;;;;16.77;11.13;;;;;;;;;;5067944;28;20032;-73
2022/01/08 12:50:19;;;;;;;19.52;11.90;;;;;;;;;;5068105;28;20048;-75
2022/01/08 12:53:04;;;;;;;20.17;13.38;;;;;;;;;;5087948;28;20101;-75
2022/01/08 12:55:34;;;;;;;20.33;13.07;;;;;;;;;;5064137;28;20111;-75
2022/01/08 12:58:01;;;;;;;18.88;12.68;;;;;;;;;;5081189;28;20036;-74
2022/01/08 13:00:27;;;;;;;21.23;13.90;;;;;;;;;;5086568;28;20479;-75
2022/01/08 13:02:53;;;;;;;21.55;14.05;;;;;;;;;;5085484;28;20040;-76
2022/01/08 13:05:20;;;;;;;25.38;13.68;;;;;;;;;;5068979;28;20123;-75
2022/01/08 13:07:49;;;;;;;20.52;14.38;;;;;;;;;;5086422;28;20463;-76
2022/01/08 13:10:19;;;;;;;21.25;15.25;;;;;;;;;;5086584;28;20032;-76
2022/01/08 13:13:03;;;;;;;22.52;14.82;;;;;;;;;;5081436;28;20670;-77
2022/01/08 13:15:32;;;;;;;25.38;16.60;;;;;;;;;;5084094;28;20475;-73
2022/01/08 13:18:15;;;;;;;22.77;15.60;;;;;;;;;;5082615;28;20036;-74
2022/01/08 13:20:41;;;;;;;20.63;14.65;;;;;;;;;;5084611;28;20040;-74
2022/01/08 13:23:09;;;;;;;23.60;14.75;;;;;;;;;;5082792;28;20475;-74
2022/01/08 13:25:36;;;;;;;21.05;15.48;;;;;;;;;;5082780;28;20421;-74
2022/01/08 13:28:03;;;;;;;26.58;17.65;;;;;;;;;;5049342;28;20067;-74
2022/01/08 13:30:29;;;;;;;23.05;15.05;;;;;;;;;;5081447;28;20082;-74
2022/01/08 13:33:02;;;;;;;23.08;14.73;;;;;;;;;;5080844;28;20605;-74
2022/01/08 13:35:28;;;;;;;24.20;16.38;;;;;;;;;;5066332;28;20098;-75
2022/01/08 13:37:54;;;;;;;20.92;15.75;;;;;;;;;;5067272;28;20456;-73
2022/01/08 13:40:25;;;;;;;25.38;16.40;;;;;;;;;;5052818;28;20997;-77
2022/01/08 13:42:52;;;;;;;28.95;17.70;;;;;;;;;;5113065;28;20059;-76
2022/01/08 13:45:23;;;;;;;25.60;18.73;;;;;;;;;;5053323;28;20052;-77
2022/01/08 13:47:53;;;;;;;23.20;17.73;;;;;;;;;;5068275;28;20866;-76
2022/01/08 13:50:33;;;;;;;21.25;15.25;;;;;;;;;;5087341;28;20071;-77
2022/01/08 13:53:01;;;;;;;20.63;16.27;;;;;;;;;;5069684;28;20245;-77
2022/01/08 13:55:40;;;;;;;22.30;14.70;;;;;;;;;;5088152;28;20048;-77
2022/01/08 13:58:07;;;;;;;23.23;14.02;;;;;;;;;;5085012;28;20040;-76
2022/01/08 14:00:35;;;;;;;22.27;14.55;;;;;;;;;;5070888;28;20514;-76
2022/01/08 14:03:01;;;;;;;19.10;14.10;;;;;;;;;;5070674;28;20052;-76
2022/01/08 14:05:28;;;;;;;23.55;14.25;;;;;;;;;;5053759;28;20040;-76
2022/01/08 14:08:03;;;;;;;20.77;13.85;;;;;;;;;;5070188;28;20048;-77
2022/01/08 14:10:35;;;;;;;18.83;12.32;;;;;;;;;;5088386;28;20136;-76
2022/01/08 14:13:06;;;;;;;17.83;11.30;;;;;;;;;;5068626;28;20237;-77
2022/01/08 14:15:32;;;;;;;17.40;10.77;;;;;;;;;;5091050;28;20491;-76
2022/01/08 14:18:07;;;;;;;20.15;11.68;;;;;;;;;;5085769;28;20511;-75
2022/01/08 14:20:33;;;;;;;19.67;10.35;;;;;;;;;;5089993;28;20036;-76
2022/01/08 14:23:16;;;;;;;17.52;9.48;;;;;;;;;;5089757;28;20040;-76
2022/01/08 14:25:42;;;;;;;16.45;9.05;;;;;;;;;;5078838;28;20056;-77
2022/01/08 14:28:37;;;;;;;15.18;7.88;;;;;;;;;;5087052;28;20083;-76
2022/01/08 14:31:15;;;;;;;13.40;8.45;;;;;;;;;;5071007;28;20066;-77
2022/01/08 14:34:00;;;;;;;12.98;8.27;;;;;;;;;;5085192;28;20947;-76
2022/01/08 14:36:26;;;;;;;14.13;8.40;;;;;;;;;;5084614;28;20077;-77
2022/01/08 14:38:52;;;;;;;16.65;8.30;;;;;;;;;;5084721;28;20044;-76
2022/01/08 14:41:31;;;;;;;14.32;8.38;;;;;;;;;;5089186;28;20051;-77
2022/01/08 14:43:59;;;;;;;18.50;9.30;;;;;;;;;;5069325;28;20040;-74
2022/01/08 14:46:25;;;;;;;15.23;9.00;;;;;;;;;;5083208;28;20610;-74
2022/01/08 14:48:51;;;;;;;12.90;8.35;;;;;;;;;;5072807;28;20040;-74
2022/01/08 14:51:18;;;;;;;17.83;9.70;;;;;;;;;;5089235;28;20419;-75
2022/01/08 14:53:44;;;;;;;17.58;9.65;;;;;;;;;;5088460;28;20119;-75
2022/01/08 14:56:10;;;;;;;18.10;11.05;;;;;;;;;;5056538;28;20048;-73